createdAt,value
2019-01-29T00:04:09.940Z,14.67
2019-01-29T00:09:17.027Z,16.89
2019-01-29T00:14:25.299Z,16.57
2019-01-29T00:19:33.472Z,17.15
2019-01-29T00:24:40.592Z,11.74
2019-01-29T00:29:48.832Z,9.35
2019-01-29T00:34:56.285Z,15.36
2019-01-29T00:40:03.526Z,16.16
2019-01-29T00:45:11.552Z,20.44
2019-01-29T00:50:19.647Z,18.97
2019-01-29T00:55:28.105Z,17.87
2019-01-29T01:00:36.217Z,18.20
2019-01-29T01:05:44.415Z,16.93
2019-01-29T01:10:52.624Z,12.08
2019-01-29T01:16:00.585Z,17.53
2019-01-29T01:21:08.686Z,14.83
2019-01-29T01:31:17.667Z,16.47
2019-01-29T01:36:25.816Z,15.61
2019-01-29T01:41:34.029Z,17.48
2019-01-29T01:46:41.396Z,12.58
2019-01-29T01:51:48.743Z,14.95
2019-01-29T01:56:56.030Z,18.72
2019-01-29T02:02:04.145Z,14.98
2019-01-29T02:07:12.264Z,16.29
2019-01-29T02:12:20.343Z,14.17
2019-01-29T02:22:35.221Z,9.32
2019-01-29T02:27:43.465Z,12.36
2019-01-29T02:32:50.566Z,9.27
2019-01-29T02:37:58.760Z,8.41
2019-01-29T02:43:06.959Z,6.45
2019-01-29T02:48:15.539Z,6.92
2019-01-29T02:53:23.614Z,6.69
2019-01-29T02:58:31.802Z,6.77
2019-01-29T03:03:42.004Z,7.42
2019-01-29T03:08:40.126Z,8.77
2019-01-29T03:13:48.199Z,7.18
2019-01-29T03:20:02.723Z,7.89
2019-01-29T03:25:09.826Z,9.56
2019-01-29T03:30:18.049Z,7.48
2019-01-29T03:35:26.133Z,6.18
2019-01-29T03:40:34.520Z,6.90
2019-01-29T03:45:42.711Z,8.59
2019-01-29T03:50:49.994Z,7.09
2019-01-29T03:55:58.149Z,7.37
2019-01-29T04:01:06.474Z,6.53
2019-01-29T04:06:13.721Z,8.85
2019-01-29T04:11:21.036Z,6.63
2019-01-29T04:16:28.965Z,7.73
2019-01-29T04:21:37.232Z,7.33
2019-01-29T04:26:45.316Z,6.74
2019-01-29T04:31:53.543Z,7.31
2019-01-29T04:37:00.650Z,8.04
2019-01-29T04:42:08.815Z,5.49
2019-01-29T04:47:16.894Z,8.04
2019-01-29T04:52:25.141Z,7.17
2019-01-29T04:57:33.235Z,7.23
2019-01-29T05:02:41.400Z,8.18
2019-01-29T05:07:49.492Z,7.04
2019-01-29T05:12:57.808Z,5.79
2019-01-29T05:18:05.880Z,4.39
2019-01-29T05:23:14.119Z,6.66
2019-01-29T05:28:21.350Z,6.22
2019-01-29T05:33:29.495Z,6.16
2019-01-29T05:38:50.611Z,6.30
2019-01-29T05:43:38.073Z,5.94
2019-01-29T05:48:47.248Z,8.44
2019-01-29T05:53:45.825Z,7.58
2019-01-29T05:58:53.052Z,7.25
2019-01-29T06:04:00.333Z,7.06
2019-01-29T06:09:07.770Z,7.87
2019-01-29T06:14:22.482Z,8.66
2019-01-29T06:19:32.616Z,9.40
2019-01-29T06:24:25.568Z,8.29
2019-01-29T06:29:30.258Z,9.51
2019-01-29T06:34:32.213Z,12.56
2019-01-29T06:39:49.245Z,8.90
2019-01-29T06:44:40.657Z,10.05
2019-01-29T06:49:44.150Z,9.90
2019-01-29T06:54:45.433Z,8.70
2019-01-29T06:59:42.546Z,9.80
2019-01-29T07:04:51.525Z,11.82
2019-01-29T07:09:58.590Z,9.23
2019-01-29T07:15:06.945Z,13.92
2019-01-29T07:20:16.674Z,11.05
2019-01-29T07:25:15.381Z,10.96
2019-01-29T07:30:22.612Z,10.70
2019-01-29T07:35:30.032Z,10.79
2019-01-29T07:40:38.085Z,11.79
2019-01-29T07:45:46.294Z,13.12
2019-01-29T07:51:07.382Z,10.81
2019-01-29T07:56:08.698Z,9.25
2019-01-29T08:00:55.912Z,9.92
2019-01-29T08:06:04.346Z,12.47
2019-01-29T08:11:11.585Z,11.49
2019-01-29T08:16:19.596Z,12.68
2019-01-29T08:21:27.821Z,10.04
2019-01-29T08:26:35.909Z,10.27
2019-01-29T08:31:44.160Z,11.21
2019-01-29T08:36:51.580Z,11.03
2019-01-29T08:41:59.596Z,12.92
2019-01-29T08:47:20.604Z,12.59
2019-01-29T08:52:11.590Z,7.84
2019-01-29T08:57:17.373Z,9.98
2019-01-29T09:02:26.472Z,9.70
2019-01-29T09:07:24.763Z,10.12
2019-01-29T09:12:32.970Z,11.56
2019-01-29T09:17:40.097Z,9.26
2019-01-29T09:22:48.304Z,11.15
2019-01-29T09:27:55.763Z,11.96
2019-01-29T09:33:03.972Z,13.28
2019-01-29T09:38:11.273Z,10.50
2019-01-29T09:43:32.369Z,7.69
2019-01-29T09:48:19.711Z,11.51
2019-01-29T09:53:39.722Z,10.28
2019-01-29T09:58:42.142Z,9.51
2019-01-29T10:08:33.318Z,11.59
2019-01-29T10:13:41.527Z,11.56
2019-01-29T10:18:48.972Z,13.56
2019-01-29T10:23:57.070Z,12.31
2019-01-29T10:29:17.125Z,15.09
2019-01-29T10:34:05.251Z,14.22
2019-01-29T10:39:13.531Z,12.92
2019-01-29T10:44:33.669Z,18.38
2019-01-29T10:49:21.037Z,17.86
2019-01-29T10:54:41.263Z,15.41
2019-01-29T10:59:28.751Z,15.17
2019-01-29T11:04:49.732Z,15.83
2019-01-29T11:09:36.987Z,11.23
2019-01-29T11:14:44.382Z,18.82
2019-01-29T11:19:51.673Z,16.84
2019-01-29T11:25:12.729Z,17.44
2019-01-29T11:30:14.015Z,14.85
2019-01-29T11:35:14.824Z,16.27
2019-01-29T11:40:15.948Z,16.95
2019-01-29T11:45:16.920Z,15.48
2019-01-29T11:50:18.139Z,16.50
2019-01-29T11:55:18.130Z,18.59
2019-01-29T12:00:19.265Z,24.97
2019-01-29T12:05:20.376Z,18.86
2019-01-29T12:10:20.679Z,23.34
2019-01-29T12:15:20.676Z,18.21
2019-01-29T12:20:21.954Z,16.38
2019-01-29T12:25:09.062Z,17.74
2019-01-29T12:30:30.896Z,17.04
2019-01-29T12:35:31.090Z,17.15
2019-01-29T12:40:31.285Z,17.02
2019-01-29T12:45:32.475Z,17.01
2019-01-29T12:50:19.871Z,17.45
2019-01-29T12:55:40.998Z,14.92
2019-01-29T13:00:28.255Z,19.21
2019-01-29T13:05:48.423Z,17.89
2019-01-29T13:10:48.568Z,18.82
2019-01-29T13:15:49.695Z,17.37
2019-01-29T13:20:49.970Z,17.97
2019-01-29T13:25:49.964Z,14.25
2019-01-29T13:30:51.106Z,14.13
2019-01-29T13:35:52.187Z,15.84
2019-01-29T13:40:53.334Z,18.06
2019-01-29T13:45:54.305Z,15.51
2019-01-29T13:50:55.524Z,13.43
2019-01-29T13:55:55.661Z,13.01
2019-01-29T14:00:55.891Z,16.22
2019-01-29T14:05:56.072Z,13.87
2019-01-29T14:10:56.320Z,16.53
2019-01-29T14:15:43.418Z,18.61
2019-01-29T14:20:51.676Z,19.51
2019-01-29T14:26:12.779Z,14.79
2019-01-29T14:31:13.221Z,8.57
2019-01-29T14:36:16.902Z,5.87
2019-01-29T14:46:17.150Z,4.68
2019-01-29T14:51:04.534Z,5.39
2019-01-29T14:56:25.620Z,4.14
2019-01-29T15:01:13.840Z,2.65
2019-01-29T15:06:35.788Z,4.32
2019-01-29T15:11:35.273Z,3.83
2019-01-29T15:16:23.405Z,3.91
2019-01-29T15:26:36.241Z,3.45
2019-01-29T15:31:44.644Z,4.70
2019-01-29T15:37:04.644Z,4.59
2019-01-29T15:41:53.101Z,3.93
2019-01-29T15:47:00.347Z,4.54
2019-01-29T15:52:07.687Z,2.31
2019-01-29T15:58:20.695Z,4.56
2019-01-29T16:03:40.755Z,3.52
2019-01-29T16:08:28.839Z,5.44
2019-01-29T16:13:37.121Z,3.71
2019-01-29T16:18:44.324Z,4.38
2019-01-29T16:23:51.887Z,5.14
2019-01-29T16:29:12.018Z,4.31
2019-01-29T16:34:00.102Z,6.39
2019-01-29T16:39:08.428Z,4.89
2019-01-29T16:44:28.661Z,5.27
2019-01-29T16:49:28.743Z,5.21
2019-01-29T16:54:16.316Z,5.22
2019-01-29T16:59:24.386Z,6.71
2019-01-29T17:04:32.669Z,5.90
2019-01-29T17:09:39.770Z,4.56
2019-01-29T17:19:56.289Z,6.16
2019-01-29T17:25:16.099Z,6.69
2019-01-29T17:30:04.080Z,9.09
2019-01-29T17:35:12.409Z,8.39
2019-01-29T17:40:20.478Z,6.99
2019-01-29T17:45:41.716Z,8.13
2019-01-29T17:50:28.833Z,6.92
2019-01-29T18:00:41.476Z,12.74
2019-01-29T18:06:02.945Z,10.03
2019-01-29T18:10:50.202Z,9.48
2019-01-29T18:15:57.647Z,11.13
2019-01-29T18:21:17.621Z,19.28
2019-01-29T18:26:06.019Z,14.84
2019-01-29T18:31:13.222Z,15.67
2019-01-29T18:36:20.560Z,15.14
2019-01-29T18:41:28.852Z,16.38
2019-01-29T18:46:49.100Z,14.27
2019-01-29T18:51:49.109Z,19.79
2019-01-29T18:56:50.200Z,15.45
2019-01-29T19:01:38.247Z,13.29
2019-01-29T19:06:59.586Z,11.07
2019-01-29T19:11:59.580Z,13.64
2019-01-29T19:16:47.906Z,8.49
2019-01-29T19:22:07.879Z,7.54
2019-01-29T19:26:55.333Z,6.74
2019-01-29T19:32:02.423Z,7.81
2019-01-29T19:37:23.574Z,8.56
2019-01-29T19:42:27.631Z,8.23
2019-01-29T19:47:11.775Z,9.42
2019-01-29T19:52:18.369Z,8.56
2019-01-29T19:57:25.803Z,8.84
2019-01-29T20:02:45.918Z,9.15
2019-01-29T20:07:33.662Z,9.72
2019-01-29T20:12:40.895Z,11.96
2019-01-29T20:17:48.177Z,10.77
2019-01-29T20:22:55.859Z,9.53
2019-01-29T20:28:03.144Z,8.75
2019-01-29T20:33:10.362Z,9.77
2019-01-29T20:38:35.158Z,9.52
2019-01-29T20:43:18.863Z,6.96
2019-01-29T20:48:26.141Z,9.28
2019-01-29T20:53:47.288Z,4.95
2019-01-29T20:58:35.572Z,5.98
2019-01-29T21:03:55.665Z,7.39
2019-01-29T21:08:42.836Z,4.65
2019-01-29T21:13:51.128Z,7.02
2019-01-29T21:19:11.204Z,7.03
2019-01-29T21:24:12.298Z,4.42
2019-01-29T21:29:03.134Z,6.21
2019-01-29T21:34:06.891Z,3.87
2019-01-29T21:39:14.241Z,5.60
2019-01-29T21:44:34.185Z,3.96
2019-01-29T21:49:22.423Z,5.19
2019-01-29T21:54:29.518Z,7.23
2019-01-29T21:59:50.672Z,5.17
2019-01-29T22:04:51.642Z,5.77
2019-01-29T22:09:39.957Z,9.29
2019-01-29T22:14:47.185Z,6.06
2019-01-29T22:19:54.518Z,4.66
2019-01-29T22:30:04.672Z,7.06
2019-01-29T22:35:15.612Z,7.82
2019-01-29T22:40:04.030Z,10.39
2019-01-29T22:45:11.302Z,8.81
2019-01-29T22:55:19.476Z,10.62
2019-01-29T23:00:26.872Z,10.16
2019-01-29T23:05:34.162Z,11.64
2019-01-29T23:15:49.604Z,8.30
2019-01-29T23:20:56.973Z,10.25
2019-01-29T23:26:04.048Z,8.24
2019-01-29T23:31:12.533Z,7.37
2019-01-29T23:36:19.784Z,7.16
2019-01-29T23:41:26.925Z,4.73
2019-01-29T23:46:35.099Z,6.34
2019-01-29T23:51:42.418Z,4.44
2019-01-29T23:56:49.491Z,3.77
